Time;durP1;ratioP1;P1;durP2;ratioP2;P2;SDS_P1;SDS_P2;PMS_P1;PMS_P2;Temp;Humidity;BMP_temperature;BMP_pressure;BME280_temperature;BME280_humidity;BME280_pressure;Samples;Min_cycle;Max_cycle;Signal;HPM_P1;HPM_P2
2023/01/01 00:01:38;;;;;;;;;;;13.10;99.90;;;;;;4940136;28;206802;-71
2023/01/01 00:04:09;;;;;;;;;;;13.10;99.90;;;;;;5000691;28;19925;-70
2023/01/01 00:06:35;;;;;;;;;;;13.00;99.90;;;;;;4931515;28;211596;-70
2023/01/01 00:11:45;;;;;;;;;;;12.90;99.90;;;;;;4954266;28;211195;-74
2023/01/01 00:14:11;;;;;;;;;;;12.80;99.90;;;;;;5014346;28;19932;-69
2023/01/01 00:16:37;;;;;;;;;;;12.70;99.90;;;;;;4941316;28;206372;-69
2023/01/01 00:19:03;;;;;;;;;;;12.70;99.90;;;;;;5008441;28;19925;-71
2023/01/01 00:21:29;;;;;;;;;;;12.50;99.90;;;;;;4947725;28;212134;-70
2023/01/01 00:23:55;;;;;;;;;;;12.50;99.90;;;;;;4998479;28;19929;-71
2023/01/01 00:26:21;;;;;;;;;;;12.50;99.90;;;;;;4965228;28;200624;-75
2023/01/01 00:28:47;;;;;;;;;;;12.50;99.90;;;;;;5004621;28;20459;-71
2023/01/01 00:31:18;;;;;;;;;;;12.50;99.90;;;;;;4949824;28;210248;-71
2023/01/01 00:33:45;;;;;;;;;;;12.50;99.90;;;;;;4994691;28;19929;-71
2023/01/01 00:36:14;;;;;;;;;;;12.50;99.90;;;;;;4955766;28;214356;-71
2023/01/01 00:38:42;;;;;;;;;;;12.60;99.90;;;;;;4994638;28;19944;-72
2023/01/01 00:41:08;;;;;;;;;;;12.60;99.90;;;;;;4965072;28;207099;-72
2023/01/01 00:43:34;;;;;;;;;;;12.70;99.90;;;;;;5013991;28;19929;-71
2023/01/01 00:46:01;;;;;;;;;;;12.70;99.90;;;;;;4962083;28;217173;-71
2023/01/01 00:48:27;;;;;;;;;;;12.80;99.90;;;;;;5005866;28;19940;-71
2023/01/01 00:50:53;;;;;;;;;;;12.80;99.90;;;;;;4953230;28;206482;-72
2023/01/01 00:53:19;;;;;;;;;;;12.80;99.90;;;;;;4979061;28;20385;-73
2023/01/01 00:55:46;;;;;;;;;;;12.90;99.90;;;;;;4963444;28;225042;-73
2023/01/01 00:58:12;;;;;;;;;;;13.00;99.90;;;;;;4986889;28;20394;-71
2023/01/01 01:00:38;;;;;;;;;;;13.00;99.90;;;;;;4954499;28;207029;-72
2023/01/01 01:03:04;;;;;;;;;;;13.10;99.90;;;;;;4990244;28;19999;-72
2023/01/01 01:05:36;;;;;;;;;;;13.20;99.90;;;;;;4968151;28;216301;-73
2023/01/01 01:08:02;;;;;;;;;;;13.20;99.90;;;;;;4991223;28;19929;-70
2023/01/01 01:10:27;;;;;;;;;;;13.20;99.90;;;;;;4965713;28;206329;-73
2023/01/01 01:12:54;;;;;;;;;;;13.20;99.90;;;;;;5005293;28;19921;-71
2023/01/01 01:15:20;;;;;;;;;;;13.30;99.90;;;;;;5006463;28;211486;-69
2023/01/01 01:17:46;;;;;;;;;;;13.20;99.90;;;;;;4984909;28;20502;-71
2023/01/01 01:20:12;;;;;;;;;;;13.20;99.90;;;;;;5026675;28;19925;-72
2023/01/01 01:22:38;;;;;;;;;;;13.20;99.90;;;;;;4947078;28;206871;-71
2023/01/01 01:25:04;;;;;;;;;;;13.10;99.90;;;;;;5027554;28;19932;-70
2023/01/01 01:27:30;;;;;;;;;;;13.00;99.90;;;;;;4965775;28;207685;-72
2023/01/01 01:29:56;;;;;;;;;;;13.00;99.90;;;;;;5026115;28;20760;-73
2023/01/01 01:32:22;;;;;;;;;;;12.90;99.90;;;;;;4957406;28;210329;-74
2023/01/01 01:34:48;;;;;;;;;;;12.90;99.90;;;;;;5008517;28;19953;-71
2023/01/01 01:37:14;;;;;;;;;;;12.80;99.90;;;;;;4951744;28;209625;-72
2023/01/01 01:39:40;;;;;;;;;;;12.80;99.90;;;;;;5022955;28;19928;-73
2023/01/01 01:42:06;;;;;;;;;;;12.80;99.90;;;;;;4962041;28;209618;-71
2023/01/01 01:44:44;;;;;;;;;;;12.70;99.90;;;;;;5022671;28;19924;-73
2023/01/01 01:47:15;;;;;;;;;;;12.70;99.90;;;;;;4941424;28;209441;-72
2023/01/01 01:49:43;;;;;;;;;;;12.70;99.90;;;;;;5023380;28;19936;-74
2023/01/01 01:52:09;;;;;;;;;;;12.60;99.90;;;;;;4966443;28;207822;-71
2023/01/01 01:54:34;;;;;;;;;;;12.60;99.90;;;;;;5004798;28;19940;-72
2023/01/01 01:57:02;;;;;;;;;;;12.60;99.90;;;;;;4965179;28;215458;-74
2023/01/01 01:59:30;;;;;;;;;;;12.60;99.90;;;;;;5023601;28;19932;-75
2023/01/01 02:01:56;;;;;;;;;;;12.60;99.90;;;;;;4934749;28;207648;-72
2023/01/01 02:04:22;;;;;;;;;;;12.70;99.90;;;;;;5015626;28;20432;-74
2023/01/01 02:06:49;;;;;;;;;;;12.60;99.90;;;;;;4944574;28;207319;-74
2023/01/01 02:09:15;;;;;;;;;;;12.70;99.90;;;;;;5017367;28;19929;-74
2023/01/01 02:11:41;;;;;;;;;;;12.70;99.90;;;;;;4950461;28;213295;-74
2023/01/01 02:14:07;;;;;;;;;;;12.70;99.90;;;;;;5013125;28;19922;-73
2023/01/01 02:16:36;;;;;;;;;;;12.70;99.90;;;;;;4965283;28;212823;-73
2023/01/01 02:19:05;;;;;;;;;;;12.80;99.90;;;;;;5004777;28;19928;-75
2023/01/01 02:21:34;;;;;;;;;;;12.80;99.90;;;;;;4967209;28;207719;-74
2023/01/01 02:24:08;;;;;;;;;;;12.80;99.90;;;;;;5005887;28;19929;-74
2023/01/01 02:26:41;;;;;;;;;;;12.90;99.90;;;;;;4957687;28;206784;-75
2023/01/01 02:29:13;;;;;;;;;;;12.90;99.90;;;;;;4997006;28;20316;-73
2023/01/01 02:31:43;;;;;;;;;;;12.90;99.90;;;;;;4967105;28;213865;-71
2023/01/01 02:34:10;;;;;;;;;;;12.90;99.90;;;;;;5019592;28;20356;-72
2023/01/01 02:36:39;;;;;;;;;;;13.00;99.90;;;;;;4964164;28;209595;-71
2023/01/01 02:39:06;;;;;;;;;;;13.00;99.90;;;;;;5014397;28;19921;-72
2023/01/01 02:41:34;;;;;;;;;;;13.00;99.90;;;;;;4950314;28;209534;-71
2023/01/01 02:44:02;;;;;;;;;;;13.00;99.90;;;;;;5018079;28;19932;-73
2023/01/01 02:46:32;;;;;;;;;;;13.00;99.90;;;;;;4959729;28;209810;-71
2023/01/01 02:48:58;;;;;;;;;;;13.00;99.90;;;;;;5008100;28;19936;-72
2023/01/01 02:51:24;;;;;;;;;;;13.00;99.90;;;;;;4960708;28;212132;-74
2023/01/01 02:53:56;;;;;;;;;;;13.10;99.90;;;;;;5020023;28;19929;-74
2023/01/01 02:56:31;;;;;;;;;;;13.00;99.90;;;;;;4964533;28;210686;-76
2023/01/01 03:02:11;;;;;;;;;;;13.20;99.90;;;;;;4959536;28;206282;-73
2023/01/01 03:04:56;;;;;;;;;;;13.20;99.90;;;;;;5019394;28;19932;-71
2023/01/01 03:07:38;;;;;;;;;;;13.10;99.90;;;;;;4967344;28;206982;-72
2023/01/01 03:10:08;;;;;;;;;;;13.00;99.90;;;;;;5024962;28;19925;-70
2023/01/01 03:12:42;;;;;;;;;;;13.10;99.90;;;;;;4971379;28;208027;-72
2023/01/01 03:15:13;;;;;;;;;;;13.10;99.90;;;;;;5029838;28;19921;-72
2023/01/01 03:17:50;;;;;;;;;;;13.10;99.90;;;;;;4955571;28;206766;-72
2023/01/01 03:20:18;;;;;;;;;;;13.20;99.90;;;;;;4975283;28;208281;-72
2023/01/01 03:22:45;;;;;;;;;;;13.20;99.90;;;;;;4982154;28;121118;-70
2023/01/01 03:25:18;;;;;;;;;;;13.40;99.90;;;;;;5007744;28;19932;-72
2023/01/01 03:27:49;;;;;;;;;;;13.40;99.90;;;;;;4910116;28;203486;-70
2023/01/01 03:30:16;;;;;;;;;;;13.30;99.90;;;;;;5014989;28;207001;-70
2023/01/01 03:33:02;;;;;;;;;;;13.40;99.90;;;;;;4974397;28;139351;-72
2023/01/01 03:35:31;;;;;;;;;;;13.40;99.90;;;;;;4974151;28;207972;-72
2023/01/01 03:37:58;;;;;;;;;;;13.30;99.90;;;;;;5005938;28;19921;-71
2023/01/01 03:40:25;;;;;;;;;;;13.30;99.90;;;;;;4973854;28;209305;-70
2023/01/01 03:42:52;;;;;;;;;;;13.20;99.90;;;;;;4995815;28;19984;-71
2023/01/01 03:45:20;;;;;;;;;;;13.10;99.90;;;;;;5004865;28;213903;-71
2023/01/01 03:47:47;;;;;;;;;;;13.00;99.90;;;;;;4972561;28;24846;-71
2023/01/01 03:50:13;;;;;;;;;;;13.00;99.90;;;;;;5022458;28;19929;-73
2023/01/01 03:52:59;;;;;;;;;;;12.90;99.90;;;;;;4961925;28;86252;-70
2023/01/01 03:55:36;;;;;;;;;;;12.90;99.90;;;;;;4962326;28;207973;-71
2023/01/01 03:58:04;;;;;;;;;;;12.90;99.90;;;;;;5015836;28;19932;-70
2023/01/01 04:00:32;;;;;;;;;;;12.90;99.90;;;;;;4959786;28;208014;-71
2023/01/01 04:03:06;;;;;;;;;;;12.90;99.90;;;;;;4989478;28;19926;-71
2023/01/01 04:05:36;;;;;;;;;;;12.90;99.90;;;;;;4953536;28;206782;-71
2023/01/01 04:08:03;;;;;;;;;;;12.90;99.90;;;;;;5012741;28;19921;-73
2023/01/01 04:10:31;;;;;;;;;;;12.80;99.90;;;;;;4975671;28;206606;-71
2023/01/01 04:12:57;;;;;;;;;;;12.80;99.90;;;;;;5022729;28;19929;-72
2023/01/01 04:15:24;;;;;;;;;;;12.60;99.90;;;;;;4967615;28;206883;-71
2023/01/01 04:17:50;;;;;;;;;;;12.40;99.90;;;;;;5020457;28;20496;-70
2023/01/01 04:20:16;;;;;;;;;;;12.30;99.90;;;;;;5013317;28;206593;-72
2023/01/01 04:22:42;;;;;;;;;;;12.20;99.90;;;;;;4979982;28;42492;-71
2023/01/01 04:25:09;;;;;;;;;;;12.00;99.90;;;;;;5027999;28;20420;-71
2023/01/01 04:27:35;;;;;;;;;;;12.00;99.90;;;;;;4943181;28;207783;-72
2023/01/01 04:30:01;;;;;;;;;;;11.90;99.90;;;;;;4992358;28;19932;-72
2023/01/01 04:32:28;;;;;;;;;;;11.90;99.90;;;;;;4954460;28;205858;-70
2023/01/01 04:34:54;;;;;;;;;;;11.80;99.90;;;;;;5006816;28;19929;-71
2023/01/01 04:37:20;;;;;;;;;;;11.80;99.90;;;;;;4950583;28;105363;-71
2023/01/01 04:39:46;;;;;;;;;;;11.90;99.90;;;;;;5026120;28;20635;-72
2023/01/01 04:42:12;;;;;;;;;;;11.80;99.90;;;;;;4957444;28;207641;-71
2023/01/01 04:44:38;;;;;;;;;;;11.90;99.90;;;;;;5024291;28;19932;-73
2023/01/01 04:47:04;;;;;;;;;;;12.00;99.90;;;;;;4952645;28;207150;-72
2023/01/01 04:49:30;;;;;;;;;;;12.20;99.90;;;;;;5021542;28;19961;-74
2023/01/01 04:51:56;;;;;;;;;;;12.30;99.90;;;;;;4961861;28;212552;-71
2023/01/01 04:54:22;;;;;;;;;;;12.30;99.90;;;;;;5023224;28;19931;-74
2023/01/01 04:56:48;;;;;;;;;;;12.50;99.90;;;;;;4963310;28;207391;-75
2023/01/01 04:59:14;;;;;;;;;;;12.50;99.90;;;;;;5023746;28;19932;-72
2023/01/01 05:01:40;;;;;;;;;;;12.50;99.90;;;;;;4957114;28;207156;-73
2023/01/01 05:04:05;;;;;;;;;;;12.50;99.90;;;;;;5002472;28;19921;-73
2023/01/01 05:06:31;;;;;;;;;;;12.50;99.90;;;;;;4971790;28;207165;-73
2023/01/01 05:08:58;;;;;;;;;;;12.50;99.90;;;;;;5024388;28;19929;-73
2023/01/01 05:11:26;;;;;;;;;;;12.50;99.90;;;;;;4956559;28;207918;-73
2023/01/01 05:13:54;;;;;;;;;;;12.50;99.90;;;;;;5003291;28;19929;-73
2023/01/01 05:16:21;;;;;;;;;;;12.50;99.90;;;;;;4959154;28;136502;-72
2023/01/01 05:18:47;;;;;;;;;;;12.50;99.90;;;;;;5004565;28;19925;-74
2023/01/01 05:21:18;;;;;;;;;;;12.50;99.90;;;;;;4966243;28;207466;-72
2023/01/01 05:23:44;;;;;;;;;;;12.40;99.90;;;;;;5013635;28;20283;-71
2023/01/01 05:26:11;;;;;;;;;;;12.40;99.90;;;;;;4966649;28;207548;-72
2023/01/01 05:28:37;;;;;;;;;;;12.40;99.90;;;;;;5011621;28;19936;-71
2023/01/01 05:31:04;;;;;;;;;;;12.40;99.90;;;;;;4960135;28;208047;-72
2023/01/01 05:33:30;;;;;;;;;;;12.40;99.90;;;;;;5012367;28;19963;-71
2023/01/01 05:35:56;;;;;;;;;;;12.40;99.90;;;;;;4964247;28;207483;-71
2023/01/01 05:38:22;;;;;;;;;;;12.40;99.90;;;;;;4996885;28;19929;-71
2023/01/01 05:40:48;;;;;;;;;;;12.60;99.90;;;;;;4977554;28;210040;-71
2023/01/01 05:43:15;;;;;;;;;;;12.60;99.90;;;;;;5008726;28;19921;-71
2023/01/01 05:45:41;;;;;;;;;;;12.70;99.90;;;;;;4970255;28;208996;-70
2023/01/01 05:48:07;;;;;;;;;;;12.60;99.90;;;;;;5025501;28;20331;-71
2023/01/01 05:50:33;;;;;;;;;;;12.60;99.90;;;;;;4974488;28;210645;-71
2023/01/01 05:52:59;;;;;;;;;;;12.60;99.90;;;;;;5009338;28;19925;-70
2023/01/01 05:55:25;;;;;;;;;;;12.60;99.90;;;;;;4972375;28;212625;-71
2023/01/01 05:57:51;;;;;;;;;;;12.60;99.90;;;;;;5021938;28;19925;-72
2023/01/01 06:00:17;;;;;;;;;;;12.60;99.90;;;;;;5006341;28;208887;-71
2023/01/01 06:02:43;;;;;;;;;;;12.60;99.90;;;;;;4943870;28;206222;-72
2023/01/01 06:05:09;;;;;;;;;;;12.60;99.90;;;;;;5026281;28;19927;-72
2023/01/01 06:07:35;;;;;;;;;;;12.50;99.90;;;;;;4974107;28;206997;-71
2023/01/01 06:10:01;;;;;;;;;;;12.60;99.90;;;;;;5021175;28;20401;-71
2023/01/01 06:12:27;;;;;;;;;;;12.60;99.90;;;;;;4944015;28;206838;-71
2023/01/01 06:14:53;;;;;;;;;;;12.50;99.90;;;;;;5005319;28;19921;-72
2023/01/01 06:17:19;;;;;;;;;;;12.50;99.90;;;;;;4937379;28;207327;-71
2023/01/01 06:19:44;;;;;;;;;;;12.50;99.90;;;;;;5021815;28;19928;-74
2023/01/01 06:22:10;;;;;;;;;;;12.40;99.90;;;;;;4947698;28;207519;-71
2023/01/01 06:24:36;;;;;;;;;;;12.40;99.90;;;;;;5004239;28;19925;-69
2023/01/01 06:27:02;;;;;;;;;;;12.40;99.90;;;;;;4941797;28;207166;-70
2023/01/01 06:29:28;;;;;;;;;;;12.30;99.90;;;;;;5019831;28;20052;-69
2023/01/01 06:31:54;;;;;;;;;;;12.30;99.90;;;;;;4973618;28;208479;-69
2023/01/01 06:34:20;;;;;;;;;;;12.30;99.90;;;;;;5004392;28;19931;-71
2023/01/01 06:36:46;;;;;;;;;;;12.30;99.90;;;;;;4959497;28;206808;-71
2023/01/01 06:39:12;;;;;;;;;;;12.30;99.90;;;;;;5014565;28;19924;-71
2023/01/01 06:41:38;;;;;;;;;;;12.20;99.90;;;;;;4958970;28;132640;-71
2023/01/01 06:44:04;;;;;;;;;;;12.20;99.90;;;;;;5020318;28;20015;-71
2023/01/01 06:46:34;;;;;;;;;;;12.20;99.90;;;;;;4956710;28;209515;-70
2023/01/01 06:49:01;;;;;;;;;;;12.30;99.90;;;;;;5021812;28;19921;-71
2023/01/01 06:51:29;;;;;;;;;;;12.30;99.90;;;;;;4966495;28;207659;-72
2023/01/01 06:53:57;;;;;;;;;;;12.20;99.90;;;;;;5022185;28;20382;-71
2023/01/01 06:56:23;;;;;;;;;;;12.20;99.90;;;;;;4945531;28;65751;-70
2023/01/01 06:58:49;;;;;;;;;;;12.10;99.90;;;;;;5015692;28;19944;-72
2023/01/01 07:01:16;;;;;;;;;;;12.10;99.90;;;;;;4949692;28;212443;-72
2023/01/01 07:03:43;;;;;;;;;;;12.00;99.90;;;;;;5009409;28;20297;-70
2023/01/01 07:06:09;;;;;;;;;;;12.10;99.90;;;;;;4960605;28;212781;-71
2023/01/01 07:08:35;;;;;;;;;;;12.10;99.90;;;;;;5005982;28;19921;-69
2023/01/01 07:11:01;;;;;;;;;;;12.10;99.90;;;;;;4972122;28;207555;-71
2023/01/01 07:13:28;;;;;;;;;;;12.10;99.90;;;;;;4999149;28;19920;-72
2023/01/01 07:15:55;;;;;;;;;;;12.10;99.90;;;;;;4963653;28;209422;-69
2023/01/01 07:18:21;;;;;;;;;;;12.00;99.90;;;;;;5019815;28;19925;-69
2023/01/01 07:20:50;;;;;;;;;;;12.00;99.90;;;;;;4975044;28;205689;-71
2023/01/01 07:23:16;;;;;;;;;;;12.00;99.90;;;;;;5023842;28;19925;-70
2023/01/01 07:25:41;;;;;;;;;;;12.00;99.90;;;;;;4962548;28;207789;-70
2023/01/01 07:28:08;;;;;;;;;;;12.00;99.90;;;;;;5025433;28;20287;-70
2023/01/01 07:30:33;;;;;;;;;;;11.90;99.90;;;;;;4955259;28;207084;-70
2023/01/01 07:32:59;;;;;;;;;;;11.90;99.90;;;;;;5006025;28;19922;-69
2023/01/01 07:35:25;;;;;;;;;;;11.90;99.90;;;;;;4967239;28;207658;-71
2023/01/01 07:37:51;;;;;;;;;;;11.80;99.90;;;;;;5021080;28;20310;-73
2023/01/01 07:40:17;;;;;;;;;;;11.80;99.90;;;;;;5013358;28;208194;-71
2023/01/01 07:42:43;;;;;;;;;;;11.80;99.90;;;;;;4977844;28;91643;-71
2023/01/01 07:45:10;;;;;;;;;;;11.80;99.90;;;;;;5028352;28;20314;-70
2023/01/01 07:47:36;;;;;;;;;;;11.80;99.90;;;;;;4943589;28;198838;-69
2023/01/01 07:50:02;;;;;;;;;;;11.80;99.90;;;;;;5030059;28;19936;-71
2023/01/01 07:52:28;;;;;;;;;;;11.80;99.90;;;;;;4973903;28;206970;-73
2023/01/01 07:54:54;;;;;;;;;;;11.80;99.90;;;;;;5030406;28;19925;-72
2023/01/01 07:57:20;;;;;;;;;;;11.80;99.90;;;;;;4963981;28;208429;-72
2023/01/01 07:59:46;;;;;;;;;;;11.80;99.90;;;;;;5008014;28;19953;-72
2023/01/01 08:02:12;;;;;;;;;;;11.70;99.90;;;;;;4946737;28;209396;-71
2023/01/01 08:04:38;;;;;;;;;;;11.70;99.90;;;;;;5024608;28;20428;-70
2023/01/01 08:07:04;;;;;;;;;;;11.70;99.90;;;;;;4962426;28;207714;-70
2023/01/01 08:09:30;;;;;;;;;;;11.70;99.90;;;;;;5020679;28;20406;-72
2023/01/01 08:11:57;;;;;;;;;;;11.70;99.90;;;;;;4968740;28;208849;-70
2023/01/01 08:14:24;;;;;;;;;;;11.70;99.90;;;;;;5025397;28;20423;-73
2023/01/01 08:16:50;;;;;;;;;;;11.60;99.90;;;;;;4959892;28;207490;-71
2023/01/01 08:19:16;;;;;;;;;;;11.70;99.90;;;;;;5022250;28;19936;-69
2023/01/01 08:21:42;;;;;;;;;;;11.60;99.90;;;;;;4964432;28;207559;-71
2023/01/01 08:24:08;;;;;;;;;;;11.60;99.90;;;;;;5022491;28;19924;-71
2023/01/01 08:26:34;;;;;;;;;;;11.60;99.90;;;;;;4960475;28;207778;-71
2023/01/01 08:29:01;;;;;;;;;;;11.60;99.90;;;;;;5013737;28;19933;-70
2023/01/01 08:31:27;;;;;;;;;;;11.60;99.90;;;;;;4971174;28;205443;-72
2023/01/01 08:33:53;;;;;;;;;;;11.60;99.90;;;;;;5026844;28;19921;-72
2023/01/01 08:36:19;;;;;;;;;;;11.50;99.90;;;;;;4956539;28;178462;-69
2023/01/01 08:38:49;;;;;;;;;;;11.50;99.90;;;;;;5029897;28;19913;-71
2023/01/01 08:41:15;;;;;;;;;;;11.50;99.90;;;;;;4995322;28;207846;-70
2023/01/01 08:43:41;;;;;;;;;;;11.50;99.90;;;;;;5052673;28;19920;-73
2023/01/01 08:46:07;;;;;;;;;;;11.50;99.90;;;;;;4965304;28;212234;-70
2023/01/01 08:48:33;;;;;;;;;;;11.50;99.90;;;;;;4996862;28;20293;-71
2023/01/01 08:50:59;;;;;;;;;;;11.50;99.90;;;;;;4965560;28;211401;-70
2023/01/01 08:53:26;;;;;;;;;;;11.50;99.90;;;;;;5023186;28;20032;-70
2023/01/01 08:55:59;;;;;;;;;;;11.40;99.90;;;;;;4960845;28;71602;-71
2023/01/01 08:58:25;;;;;;;;;;;11.40;99.90;;;;;;4994396;28;19940;-72
2023/01/01 09:00:52;;;;;;;;;;;11.50;99.90;;;;;;4962818;28;207880;-70
2023/01/01 09:03:17;;;;;;;;;;;11.50;99.90;;;;;;5009870;28;19929;-71
2023/01/01 09:05:44;;;;;;;;;;;11.40;99.90;;;;;;4952868;28;225657;-72
2023/01/01 09:08:11;;;;;;;;;;;11.40;99.90;;;;;;5001505;28;20576;-71
2023/01/01 09:10:37;;;;;;;;;;;11.50;99.90;;;;;;4958211;28;207111;-71
2023/01/01 09:13:03;;;;;;;;;;;11.50;99.90;;;;;;5013262;28;19940;-70
2023/01/01 09:15:29;;;;;;;;;;;11.50;99.90;;;;;;4949409;28;209579;-69
2023/01/01 09:17:55;;;;;;;;;;;11.50;99.90;;;;;;5022913;28;19928;-71
2023/01/01 09:20:21;;;;;;;;;;;11.50;99.90;;;;;;5002364;28;207875;-72
2023/01/01 09:22:47;;;;;;;;;;;11.60;99.90;;;;;;4979974;28;204422;-72
2023/01/01 09:25:13;;;;;;;;;;;11.50;99.90;;;;;;5029594;28;20434;-72
2023/01/01 09:27:39;;;;;;;;;;;11.60;99.90;;;;;;4935926;28;273225;-72
2023/01/01 09:30:05;;;;;;;;;;;11.50;99.90;;;;;;5029280;28;20379;-70
2023/01/01 09:32:31;;;;;;;;;;;11.50;99.90;;;;;;4943474;28;205014;-69
2023/01/01 09:34:59;;;;;;;;;;;11.60;99.90;;;;;;5024733;28;19925;-71
2023/01/01 09:37:25;;;;;;;;;;;11.60;99.90;;;;;;4936735;28;174123;-69
2023/01/01 09:39:54;;;;;;;;;;;11.60;99.90;;;;;;5005970;28;20446;-73
2023/01/01 09:42:28;;;;;;;;;;;11.60;99.90;;;;;;4961886;28;208837;-70
2023/01/01 09:44:54;;;;;;;;;;;11.60;99.90;;;;;;5023642;28;19925;-72
2023/01/01 09:47:25;;;;;;;;;;;11.60;99.90;;;;;;4951434;28;44120;-74
2023/01/01 09:49:54;;;;;;;;;;;11.60;99.90;;;;;;5022728;28;19925;-71
2023/01/01 09:52:23;;;;;;;;;;;11.60;99.90;;;;;;4960518;28;210144;-73
2023/01/01 09:54:52;;;;;;;;;;;11.60;99.90;;;;;;5028815;28;19925;-72
2023/01/01 09:57:20;;;;;;;;;;;11.70;99.90;;;;;;4949823;28;209385;-71
2023/01/01 09:59:45;;;;;;;;;;;11.70;99.90;;;;;;4988107;28;19941;-70
2023/01/01 10:02:15;;;;;;;;;;;11.70;99.90;;;;;;4939284;28;280757;-72
2023/01/01 10:05:00;;;;;;;;;;;11.70;99.90;;;;;;5023442;28;19925;-74
2023/01/01 10:07:42;;;;;;;;;;;11.70;99.90;;;;;;4935530;28;207273;-74
2023/01/01 10:10:10;;;;;;;;;;;11.70;99.90;;;;;;5045258;28;19941;-73
2023/01/01 10:12:42;;;;;;;;;;;11.70;99.90;;;;;;4919206;28;179622;-74
2023/01/01 10:15:13;;;;;;;;;;;11.70;99.90;;;;;;4991974;28;19932;-72
2023/01/01 10:17:41;;;;;;;;;;;11.70;99.90;;;;;;4947394;28;251538;-71
2023/01/01 10:20:14;;;;;;;;;;;11.70;99.90;;;;;;5019333;28;19921;-72
2023/01/01 10:22:42;;;;;;;;;;;11.70;99.90;;;;;;4959184;28;104784;-72
2023/01/01 10:25:17;;;;;;;;;;;11.60;99.90;;;;;;5017218;28;19925;-72
2023/01/01 10:27:45;;;;;;;;;;;11.60;99.90;;;;;;4923372;28;207016;-71
2023/01/01 10:30:15;;;;;;;;;;;11.70;99.90;;;;;;5021190;28;19925;-72
2023/01/01 10:32:43;;;;;;;;;;;11.70;99.90;;;;;;4928662;28;206649;-75
2023/01/01 10:35:13;;;;;;;;;;;11.60;99.90;;;;;;5020096;28;19925;-72
2023/01/01 10:37:39;;;;;;;;;;;11.70;99.90;;;;;;4938123;28;222694;-72
2023/01/01 10:40:13;;;;;;;;;;;11.60;99.90;;;;;;5018406;28;19929;-72
2023/01/01 10:42:39;;;;;;;;;;;11.70;99.90;;;;;;4946169;28;45655;-70
2023/01/01 10:45:10;;;;;;;;;;;11.70;99.90;;;;;;5018158;28;19925;-71
2023/01/01 10:47:36;;;;;;;;;;;11.70;99.90;;;;;;4945004;28;215745;-71
2023/01/01 10:50:06;;;;;;;;;;;11.70;99.90;;;;;;5017782;28;19933;-72
2023/01/01 10:52:37;;;;;;;;;;;11.70;99.90;;;;;;4949210;28;230387;-72
2023/01/01 10:55:03;;;;;;;;;;;11.80;99.90;;;;;;5015778;28;20310;-70
2023/01/01 10:57:31;;;;;;;;;;;11.70;99.90;;;;;;4931904;28;213065;-71
2023/01/01 11:00:11;;;;;;;;;;;11.70;99.90;;;;;;5020215;28;20698;-71
2023/01/01 11:02:37;;;;;;;;;;;11.70;99.90;;;;;;4934354;28;111043;-74
2023/01/01 11:05:15;;;;;;;;;;;11.80;99.90;;;;;;5020421;28;19935;-72
2023/01/01 11:07:41;;;;;;;;;;;11.70;99.90;;;;;;4903351;28;206592;-72
2023/01/01 11:10:14;;;;;;;;;;;11.70;99.90;;;;;;5023010;28;19933;-71
2023/01/01 11:12:40;;;;;;;;;;;11.80;99.90;;;;;;4922094;28;100212;-71
2023/01/01 11:15:06;;;;;;;;;;;11.80;99.90;;;;;;5018968;28;20290;-72
2023/01/01 11:17:33;;;;;;;;;;;11.80;99.90;;;;;;4953192;28;210865;-72
2023/01/01 11:20:00;;;;;;;;;;;11.80;99.90;;;;;;5020929;28;19925;-72
2023/01/01 11:22:52;;;;;;;;;;;11.80;99.90;;;;;;4961240;28;208106;-72
2023/01/01 11:25:26;;;;;;;;;;;11.80;99.90;;;;;;4998417;28;207830;-73
2023/01/01 11:28:10;;;;;;;;;;;11.80;99.90;;;;;;4952986;28;91475;-71
2023/01/01 11:30:36;;;;;;;;;;;11.90;99.90;;;;;;4967677;28;207176;-72
2023/01/01 11:33:03;;;;;;;;;;;11.90;99.90;;;;;;5023003;28;19929;-73
2023/01/01 11:35:30;;;;;;;;;;;11.90;99.90;;;;;;4967358;28;209380;-72
2023/01/01 11:37:57;;;;;;;;;;;11.90;99.90;;;;;;5020156;28;19936;-72
2023/01/01 11:40:35;;;;;;;;;;;11.90;99.90;;;;;;4967957;28;210668;-72
2023/01/01 11:43:03;;;;;;;;;;;11.90;99.90;;;;;;5002374;28;210844;-73
2023/01/01 11:45:48;;;;;;;;;;;11.90;99.90;;;;;;4974626;28;209057;-72
2023/01/01 11:48:34;;;;;;;;;;;11.90;99.90;;;;;;5009885;28;19925;-72
2023/01/01 11:51:01;;;;;;;;;;;11.90;99.90;;;;;;4966472;28;215250;-73
2023/01/01 11:53:29;;;;;;;;;;;12.00;99.90;;;;;;5014249;28;20445;-71
2023/01/01 11:56:04;;;;;;;;;;;12.00;99.90;;;;;;4964878;28;59076;-71
2023/01/01 11:58:42;;;;;;;;;;;12.20;99.90;;;;;;5012735;28;19922;-71
2023/01/01 12:01:09;;;;;;;;;;;12.20;99.90;;;;;;4957280;28;92426;-71
2023/01/01 12:03:43;;;;;;;;;;;12.30;99.90;;;;;;5028530;28;19922;-70
2023/01/01 12:06:14;;;;;;;;;;;12.40;99.90;;;;;;4966230;28;207019;-70
2023/01/01 12:08:52;;;;;;;;;;;12.50;99.90;;;;;;5004776;28;19921;-74
2023/01/01 12:11:22;;;;;;;;;;;12.60;99.90;;;;;;4958299;28;136628;-71
2023/01/01 12:13:56;;;;;;;;;;;12.60;99.90;;;;;;5007327;28;19932;-72
2023/01/01 12:16:46;;;;;;;;;;;12.60;99.90;;;;;;4970891;28;207416;-73
2023/01/01 12:19:18;;;;;;;;;;;12.60;99.90;;;;;;5023653;28;19929;-72
2023/01/01 12:21:46;;;;;;;;;;;12.50;99.90;;;;;;4970364;28;206495;-71
2023/01/01 12:24:12;;;;;;;;;;;12.40;99.90;;;;;;5007710;28;19945;-73
2023/01/01 12:27:16;;;;;;;;;;;12.40;99.90;;;;;;4971481;28;209707;-73
2023/01/01 12:29:51;;;;;;;;;;;12.40;99.90;;;;;;4970120;28;19926;-72
2023/01/01 12:32:17;;;;;;;;;;;12.40;99.90;;;;;;4903690;28;189781;-72
2023/01/01 12:34:57;;;;;;;;;;;12.50;99.90;;;;;;4951925;28;19938;-72
2023/01/01 12:37:48;;;;;;;;;;;12.50;99.90;;;;;;4880054;28;221788;-72
2023/01/01 12:40:34;;;;;;;;;;;12.60;99.90;;;;;;4951882;28;133800;-71
2023/01/01 12:43:07;;;;;;;;;;;12.70;99.90;;;;;;4911193;28;206065;-72
2023/01/01 12:45:38;;;;;;;;;;;13.30;99.90;;;;;;4918538;28;119396;-71
2023/01/01 12:48:23;;;;;;;;;;;13.40;99.90;;;;;;4958588;28;20833;-72
2023/01/01 12:50:56;;;;;;;;;;;13.40;99.90;;;;;;4908529;28;180646;-70
2023/01/01 12:53:28;;;;;;;;;;;13.30;99.90;;;;;;4948343;28;20792;-70
2023/01/01 12:55:57;;;;;;;;;;;13.10;99.90;;;;;;4893029;28;209030;-72
2023/01/01 12:58:25;;;;;;;;;;;13.00;99.90;;;;;;4928233;28;20573;-71
2023/01/01 13:01:12;;;;;;;;;;;12.80;99.90;;;;;;4904961;28;209750;-70
2023/01/01 13:03:47;;;;;;;;;;;12.70;99.90;;;;;;4987916;28;20410;-71
2023/01/01 13:06:15;;;;;;;;;;;12.70;99.90;;;;;;4946601;28;62395;-70
2023/01/01 13:08:42;;;;;;;;;;;12.60;99.90;;;;;;4996195;28;19932;-73
2023/01/01 13:11:08;;;;;;;;;;;12.60;99.90;;;;;;4946151;28;260649;-71
2023/01/01 13:13:34;;;;;;;;;;;12.60;99.90;;;;;;5012829;28;19922;-71
2023/01/01 13:16:00;;;;;;;;;;;12.60;99.90;;;;;;4971329;28;205329;-71
2023/01/01 13:18:28;;;;;;;;;;;12.60;99.90;;;;;;5004378;28;19925;-71
2023/01/01 13:20:53;;;;;;;;;;;12.60;99.90;;;;;;4960757;28;33018;-71
2023/01/01 13:23:25;;;;;;;;;;;12.60;99.90;;;;;;4994425;28;19925;-72
2023/01/01 13:26:11;;;;;;;;;;;12.60;99.90;;;;;;4958355;28;207652;-71
2023/01/01 13:28:37;;;;;;;;;;;12.60;99.90;;;;;;5007654;28;19921;-71
2023/01/01 13:31:03;;;;;;;;;;;12.60;99.90;;;;;;4973628;28;211172;-72
2023/01/01 13:33:31;;;;;;;;;;;12.60;99.90;;;;;;5017266;28;19960;-73
2023/01/01 13:36:12;;;;;;;;;;;12.60;99.90;;;;;;4970312;28;208076;-72
2023/01/01 13:38:47;;;;;;;;;;;12.50;99.90;;;;;;5024276;28;19925;-72
2023/01/01 13:41:24;;;;;;;;;;;12.40;99.90;;;;;;4975988;28;210529;-71
2023/01/01 13:43:51;;;;;;;;;;;12.40;99.90;;;;;;5024510;28;19925;-72
2023/01/01 13:46:19;;;;;;;;;;;12.30;99.90;;;;;;4971272;28;209869;-71
2023/01/01 13:49:04;;;;;;;;;;;12.20;99.90;;;;;;5018439;28;20313;-72
2023/01/01 13:51:49;;;;;;;;;;;12.20;99.90;;;;;;4965542;28;209849;-73
2023/01/01 13:54:14;;;;;;;;;;;12.20;99.90;;;;;;4999798;28;19925;-72
2023/01/01 13:56:43;;;;;;;;;;;12.20;99.90;;;;;;4956028;28;206278;-74
2023/01/01 13:59:28;;;;;;;;;;;12.10;99.90;;;;;;5017892;28;19925;-72
2023/01/01 14:01:56;;;;;;;;;;;12.10;99.90;;;;;;4935603;28;136400;-71
2023/01/01 14:04:25;;;;;;;;;;;12.10;99.90;;;;;;5017746;28;20420;-73
2023/01/01 14:06:53;;;;;;;;;;;12.10;99.90;;;;;;4953984;28;204854;-74
2023/01/01 14:09:19;;;;;;;;;;;12.10;99.90;;;;;;5002027;28;19921;-74
2023/01/01 14:11:45;;;;;;;;;;;12.10;99.90;;;;;;4946222;28;86184;-74
2023/01/01 14:14:27;;;;;;;;;;;12.10;99.90;;;;;;5016506;28;19927;-74
2023/01/01 14:16:57;;;;;;;;;;;12.00;99.90;;;;;;4948391;28;209888;-74
2023/01/01 14:19:23;;;;;;;;;;;12.00;99.90;;;;;;5018526;28;20338;-70
2023/01/01 14:21:50;;;;;;;;;;;12.00;99.90;;;;;;4969186;28;210682;-71
2023/01/01 14:24:17;;;;;;;;;;;11.90;99.90;;;;;;5019338;28;19925;-70
2023/01/01 14:26:44;;;;;;;;;;;11.90;99.90;;;;;;4970928;28;207095;-71